createdAt,value
2023-05-19T00:00:16.135Z,13.68
2023-05-19T00:03:05.312Z,13.71
2023-05-19T00:05:37.053Z,13.67
2023-05-19T00:08:07.073Z,13.67
2023-05-19T00:10:36.210Z,13.65
2023-05-19T00:13:04.997Z,13.64
2023-05-19T00:15:34.042Z,13.67
2023-05-19T00:18:02.800Z,13.66
2023-05-19T00:20:31.592Z,13.63
2023-05-19T00:23:00.563Z,13.65
2023-05-19T00:25:29.210Z,13.67
2023-05-19T00:27:59.333Z,13.61
2023-05-19T00:30:28.100Z,13.61
2023-05-19T00:32:56.750Z,13.60
2023-05-19T00:35:25.510Z,13.62
2023-05-19T00:37:54.183Z,13.67
2023-05-19T00:40:24.599Z,13.72
2023-05-19T00:42:54.221Z,13.72
2023-05-19T00:45:23.120Z,13.76
2023-05-19T00:47:51.888Z,13.74
2023-05-19T00:50:20.603Z,13.71
2023-05-19T00:52:49.278Z,13.74
2023-05-19T00:55:18.125Z,13.72
2023-05-19T00:57:47.908Z,13.73
2023-05-19T01:00:16.735Z,13.68
2023-05-19T01:02:45.426Z,13.71
2023-05-19T01:05:14.285Z,13.70
2023-05-19T01:07:43.258Z,13.67
2023-05-19T01:10:11.932Z,13.71
2023-05-19T01:12:41.166Z,13.70
2023-05-19T01:15:10.865Z,13.74
2023-05-19T01:18:12.116Z,13.71
2023-05-19T01:20:55.300Z,13.71
2023-05-19T01:24:09.294Z,13.71
2023-05-19T01:28:07.745Z,13.73
2023-05-19T01:30:52.864Z,13.74
2023-05-19T01:33:23.728Z,13.74
2023-05-19T01:35:54.341Z,13.75
2023-05-19T01:38:25.553Z,13.76
2023-05-19T01:40:56.363Z,13.71
2023-05-19T01:43:27.500Z,13.67
2023-05-19T01:45:58.980Z,13.66
2023-05-19T01:48:29.148Z,13.64
2023-05-19T01:51:00.414Z,13.66
2023-05-19T01:53:29.073Z,13.58
2023-05-19T01:55:58.093Z,13.54
2023-05-19T01:58:47.740Z,13.49
2023-05-19T02:01:55.418Z,13.45
2023-05-19T02:04:40.272Z,13.51
2023-05-19T02:07:42.907Z,13.51
2023-05-19T02:10:18.400Z,13.50
2023-05-19T02:12:52.178Z,13.53
2023-05-19T02:15:27.621Z,13.55
2023-05-19T02:18:00.458Z,13.55
2023-05-19T02:20:29.672Z,13.49
2023-05-19T02:22:58.271Z,13.51
2023-05-19T02:25:27.526Z,13.53
2023-05-19T02:27:58.617Z,13.54
2023-05-19T02:30:27.336Z,13.49
2023-05-19T02:32:55.998Z,13.44
2023-05-19T02:35:24.665Z,13.46
2023-05-19T02:37:54.358Z,13.42
2023-05-19T02:40:23.824Z,13.44
2023-05-19T02:42:52.549Z,13.40
2023-05-19T02:45:21.250Z,13.35
2023-05-19T02:47:49.854Z,13.40
2023-05-19T02:50:18.582Z,13.41
2023-05-19T02:52:47.147Z,13.39
2023-05-19T02:55:17.424Z,13.42
2023-05-19T02:57:46.311Z,13.48
2023-05-19T03:00:16.083Z,13.48
2023-05-19T03:02:44.851Z,13.46
2023-05-19T03:05:14.467Z,13.47
2023-05-19T03:07:46.038Z,13.46
2023-05-19T03:10:14.645Z,13.45
2023-05-19T03:12:43.248Z,13.46
2023-05-19T03:15:13.481Z,13.51
2023-05-19T03:17:42.214Z,13.44
2023-05-19T03:20:11.527Z,13.40
2023-05-19T03:22:40.192Z,13.51
2023-05-19T03:25:11.748Z,13.52
2023-05-19T03:27:40.455Z,13.50
2023-05-19T03:30:10.624Z,13.49
2023-05-19T03:32:56.034Z,13.39
2023-05-19T03:35:25.167Z,13.47
2023-05-19T03:37:54.722Z,13.47
2023-05-19T03:40:23.748Z,13.50
2023-05-19T03:42:54.613Z,13.44
2023-05-19T03:45:23.479Z,13.42
2023-05-19T03:47:53.214Z,13.49
2023-05-19T03:50:41.247Z,13.45
2023-05-19T03:53:20.391Z,13.49
2023-05-19T03:55:49.916Z,13.54
2023-05-19T03:58:19.187Z,13.57
2023-05-19T04:00:48.291Z,13.56
2023-05-19T04:03:17.068Z,13.59
2023-05-19T04:05:46.115Z,13.54
2023-05-19T04:08:15.158Z,13.52
2023-05-19T04:10:43.849Z,13.58
2023-05-19T04:13:12.704Z,13.59
2023-05-19T04:15:42.035Z,13.60
2023-05-19T04:18:11.404Z,13.61
2023-05-19T04:20:43.514Z,13.63
2023-05-19T04:23:12.588Z,13.64
2023-05-19T04:25:42.482Z,13.64
2023-05-19T04:28:11.173Z,13.73
2023-05-19T04:30:39.876Z,13.73
2023-05-19T04:33:11.777Z,13.76
2023-05-19T04:35:41.345Z,13.85
2023-05-19T04:38:12.213Z,13.83
2023-05-19T04:40:42.443Z,13.89
2023-05-19T04:43:11.559Z,13.93
2023-05-19T04:45:42.774Z,13.92
2023-05-19T04:48:12.353Z,13.97
2023-05-19T04:50:42.310Z,13.96
2023-05-19T04:53:11.740Z,13.96
2023-05-19T04:55:40.508Z,13.93
2023-05-19T04:58:10.891Z,13.98
2023-05-19T05:00:39.465Z,13.99
2023-05-19T05:03:09.210Z,14.07
2023-05-19T05:05:37.935Z,14.09
2023-05-19T05:08:07.354Z,14.22
2023-05-19T05:10:38.796Z,14.35
2023-05-19T05:13:09.974Z,14.35
2023-05-19T05:15:40.436Z,14.46
2023-05-19T05:18:10.177Z,14.52
2023-05-19T05:20:39.676Z,14.56
2023-05-19T05:23:09.776Z,14.61
2023-05-19T05:25:39.654Z,14.60
2023-05-19T05:28:08.628Z,14.59
2023-05-19T05:30:38.263Z,14.49
2023-05-19T05:33:08.214Z,14.53
2023-05-19T05:35:39.313Z,14.64
2023-05-19T05:38:09.029Z,14.83
2023-05-19T05:40:38.023Z,14.97
2023-05-19T05:43:06.866Z,15.11
2023-05-19T05:45:38.581Z,15.01
2023-05-19T05:48:07.945Z,15.05
2023-05-19T05:50:37.209Z,14.97
2023-05-19T05:53:07.525Z,14.88
2023-05-19T05:55:36.857Z,14.89
2023-05-19T05:58:06.602Z,14.95
2023-05-19T06:00:37.007Z,15.01
2023-05-19T06:03:06.275Z,14.97
2023-05-19T06:05:35.034Z,14.94
2023-05-19T06:08:04.520Z,15.06
2023-05-19T06:10:33.725Z,15.00
2023-05-19T06:13:03.023Z,14.99
2023-05-19T06:15:32.360Z,15.04
2023-05-19T06:18:08.846Z,15.22
2023-05-19T06:20:37.321Z,15.24
2023-05-19T06:23:05.890Z,15.20
2023-05-19T06:25:34.584Z,15.27
2023-05-19T06:28:03.716Z,15.35
2023-05-19T06:30:32.346Z,15.42
2023-05-19T06:33:08.802Z,15.45
2023-05-19T06:35:38.681Z,15.49
2023-05-19T06:38:07.285Z,15.45
2023-05-19T06:44:10.864Z,15.63
2023-05-19T06:46:39.567Z,15.69
2023-05-19T06:49:08.122Z,15.69
2023-05-19T06:51:39.644Z,15.75
2023-05-19T06:54:11.102Z,15.76
2023-05-19T06:56:39.898Z,15.86
2023-05-19T06:59:08.754Z,15.84
2023-05-19T07:01:40.006Z,15.95
2023-05-19T07:04:08.677Z,16.17
2023-05-19T07:06:37.329Z,16.33
2023-05-19T07:09:05.914Z,16.48
2023-05-19T07:11:35.220Z,16.49
2023-05-19T07:14:04.164Z,16.49
2023-05-19T07:16:33.074Z,16.59
2023-05-19T07:19:01.617Z,16.74
2023-05-19T07:21:30.264Z,16.85
2023-05-19T07:23:58.651Z,17.02
2023-05-19T07:30:01.026Z,17.19
2023-05-19T07:32:29.435Z,17.18
2023-05-19T07:34:58.062Z,17.21
2023-05-19T07:37:26.821Z,17.28
2023-05-19T07:39:55.313Z,17.43
2023-05-19T07:42:23.912Z,17.53
2023-05-19T07:44:52.544Z,17.55
2023-05-19T07:47:21.218Z,17.59
2023-05-19T07:49:51.744Z,17.53
2023-05-19T07:52:20.802Z,17.45
2023-05-19T07:54:49.311Z,17.28
2023-05-19T07:57:19.691Z,17.19
2023-05-19T07:59:48.210Z,17.20
2023-05-19T08:02:16.701Z,17.15
2023-05-19T08:04:45.300Z,17.16
2023-05-19T08:07:13.926Z,17.20
2023-05-19T08:09:42.400Z,17.19
2023-05-19T08:12:11.169Z,17.22
2023-05-19T08:14:39.677Z,17.26
2023-05-19T08:17:08.162Z,17.32
2023-05-19T08:19:36.717Z,17.41
2023-05-19T08:22:05.453Z,17.40
2023-05-19T08:24:34.075Z,17.40
2023-05-19T08:27:02.778Z,17.46
2023-05-19T08:29:32.101Z,17.55
2023-05-19T08:32:01.955Z,17.64
2023-05-19T08:34:30.544Z,17.72
2023-05-19T08:36:59.953Z,17.76
2023-05-19T08:39:28.649Z,17.84
2023-05-19T08:41:57.246Z,17.90
2023-05-19T08:44:25.637Z,18.04
2023-05-19T08:46:56.576Z,18.17
2023-05-19T08:49:30.872Z,18.28
2023-05-19T08:52:22.282Z,18.37
2023-05-19T08:55:09.728Z,18.53
2023-05-19T08:57:38.770Z,18.61
2023-05-19T09:00:12.500Z,18.77
2023-05-19T09:02:50.642Z,18.93
2023-05-19T09:05:29.658Z,18.96
2023-05-19T09:07:58.447Z,18.97
2023-05-19T09:10:29.022Z,18.99
2023-05-19T09:12:57.804Z,19.03
2023-05-19T09:15:29.291Z,19.17
2023-05-19T09:18:12.529Z,19.34
2023-05-19T09:20:43.973Z,19.34
2023-05-19T09:23:37.863Z,19.53
2023-05-19T09:29:37.588Z,19.90
2023-05-19T09:32:06.533Z,20.08
2023-05-19T09:34:35.074Z,20.04
2023-05-19T09:37:03.964Z,19.99
2023-05-19T09:39:33.066Z,20.13
2023-05-19T09:42:05.570Z,20.15
2023-05-19T09:44:35.608Z,20.16
2023-05-19T09:47:05.522Z,20.21
2023-05-19T09:49:34.685Z,20.23
2023-05-19T09:52:04.222Z,20.22
2023-05-19T09:54:34.657Z,20.20
2023-05-19T09:57:07.758Z,20.16
2023-05-19T09:59:39.296Z,20.21
2023-05-19T10:02:17.069Z,20.27
2023-05-19T10:04:47.827Z,20.15
2023-05-19T10:07:17.939Z,20.13
2023-05-19T10:09:49.117Z,20.16
2023-05-19T10:12:18.462Z,20.29
2023-05-19T10:14:49.091Z,20.40
2023-05-19T10:17:17.871Z,20.51
2023-05-19T10:19:50.552Z,20.56
2023-05-19T10:22:20.191Z,20.61
2023-05-19T10:24:48.746Z,20.66
2023-05-19T10:27:18.866Z,20.66
2023-05-19T10:29:52.101Z,20.67
2023-05-19T10:32:28.819Z,20.73
2023-05-19T10:35:58.245Z,20.83
2023-05-19T10:38:59.129Z,21.02
2023-05-19T10:41:54.029Z,21.05
2023-05-19T10:44:55.188Z,21.05
2023-05-19T10:47:27.985Z,21.07
2023-05-19T10:49:57.016Z,21.17
2023-05-19T10:52:30.339Z,21.25
2023-05-19T10:54:59.144Z,21.29
2023-05-19T10:57:28.504Z,21.34
2023-05-19T10:59:57.593Z,21.36
2023-05-19T11:02:40.960Z,21.34
2023-05-19T11:05:18.302Z,21.39
2023-05-19T11:08:05.379Z,21.37
2023-05-19T11:10:35.169Z,21.42
2023-05-19T11:13:06.486Z,21.34
2023-05-19T11:15:38.842Z,21.30
2023-05-19T11:18:08.011Z,21.31
2023-05-19T11:20:39.409Z,21.42
2023-05-19T11:23:18.537Z,21.47
2023-05-19T11:25:49.767Z,21.64
2023-05-19T11:28:28.282Z,21.69
2023-05-19T11:30:59.272Z,21.71
2023-05-19T11:33:28.032Z,21.77
2023-05-19T11:35:58.677Z,21.78
2023-05-19T11:38:30.261Z,21.78
2023-05-19T11:40:59.199Z,21.79
2023-05-19T11:43:27.767Z,21.85
2023-05-19T11:45:56.527Z,21.89
2023-05-19T11:48:26.737Z,21.98
2023-05-19T11:50:56.997Z,22.09
2023-05-19T11:53:25.635Z,22.23
2023-05-19T11:55:54.242Z,22.38
2023-05-19T11:58:27.506Z,22.46
2023-05-19T12:00:56.769Z,22.54
2023-05-19T12:03:28.510Z,22.63
2023-05-19T12:05:57.462Z,22.63
2023-05-19T12:08:27.374Z,22.66
2023-05-19T12:10:56.472Z,22.63
2023-05-19T12:13:25.765Z,22.68
2023-05-19T12:15:54.379Z,22.71
2023-05-19T12:18:23.035Z,22.70
2023-05-19T12:20:52.049Z,22.73
2023-05-19T12:23:20.925Z,22.73
2023-05-19T12:25:49.778Z,22.76
2023-05-19T12:28:19.791Z,22.81
2023-05-19T12:30:53.253Z,22.95
2023-05-19T12:33:24.669Z,23.03
2023-05-19T12:35:55.061Z,23.05
2023-05-19T12:38:23.714Z,23.08
2023-05-19T12:40:52.439Z,23.12
2023-05-19T12:43:25.581Z,23.16
2023-05-19T12:45:54.403Z,23.20
2023-05-19T12:48:23.895Z,23.28
2023-05-19T12:50:54.544Z,23.28
2023-05-19T12:53:50.722Z,23.30
2023-05-19T12:56:19.224Z,23.41
2023-05-19T12:58:47.806Z,23.57
2023-05-19T13:01:19.040Z,23.76
2023-05-19T13:03:47.811Z,23.87
2023-05-19T13:06:16.400Z,23.90
2023-05-19T13:08:47.483Z,23.76
2023-05-19T13:11:15.997Z,23.67
2023-05-19T13:13:44.725Z,23.57
2023-05-19T13:16:13.632Z,23.46
2023-05-19T13:18:42.307Z,23.31
2023-05-19T13:21:10.799Z,23.20
2023-05-19T13:23:40.004Z,23.09
2023-05-19T13:26:09.329Z,23.03
2023-05-19T13:28:54.248Z,22.65
2023-05-19T13:31:22.851Z,22.21
2023-05-19T13:33:51.558Z,21.86
2023-05-19T13:36:19.880Z,21.55
2023-05-19T13:38:48.387Z,21.27
2023-05-19T13:41:18.486Z,21.10
2023-05-19T13:43:47.001Z,21.04
2023-05-19T13:46:15.476Z,20.99
2023-05-19T13:48:44.063Z,20.93
2023-05-19T13:51:13.604Z,20.86
2023-05-19T13:53:42.649Z,20.87
2023-05-19T13:56:11.324Z,20.83
2023-05-19T13:58:40.135Z,20.67
2023-05-19T14:01:09.652Z,20.55
2023-05-19T14:03:38.262Z,20.54
2023-05-19T14:06:07.298Z,20.48
2023-05-19T14:08:36.532Z,20.44
2023-05-19T14:11:05.186Z,20.48
2023-05-19T14:13:38.263Z,20.54
2023-05-19T14:16:09.805Z,20.60
2023-05-19T14:18:38.385Z,20.67
2023-05-19T14:21:07.048Z,20.76
2023-05-19T14:23:35.698Z,20.88
2023-05-19T14:26:04.343Z,21.07
2023-05-19T14:28:32.967Z,21.26
2023-05-19T14:31:01.572Z,21.30
2023-05-19T14:33:34.934Z,21.20
2023-05-19T14:36:05.575Z,21.06
2023-05-19T14:38:34.305Z,21.04
2023-05-19T14:41:13.465Z,20.97
2023-05-19T14:43:43.364Z,20.89
2023-05-19T14:46:11.991Z,20.87
2023-05-19T14:48:40.566Z,20.80
2023-05-19T14:51:09.152Z,20.74
2023-05-19T14:53:37.817Z,20.65
2023-05-19T14:56:07.546Z,20.61
2023-05-19T14:58:36.280Z,20.60
2023-05-19T15:01:04.968Z,20.65
2023-05-19T15:03:33.499Z,20.72
2023-05-19T15:06:02.220Z,20.77
2023-05-19T15:08:30.883Z,20.81
2023-05-19T15:10:59.399Z,20.83
2023-05-19T15:13:29.152Z,20.96
2023-05-19T15:16:12.474Z,21.09
2023-05-19T15:18:44.897Z,21.47
2023-05-19T15:21:13.596Z,21.99
2023-05-19T15:23:42.303Z,22.37
2023-05-19T15:26:10.691Z,22.41
2023-05-19T15:28:39.193Z,22.24
2023-05-19T15:31:07.703Z,22.13
2023-05-19T15:33:36.381Z,22.04
2023-05-19T15:36:05.341Z,21.93
2023-05-19T15:38:36.770Z,21.85
2023-05-19T15:41:08.431Z,21.82
2023-05-19T15:43:37.083Z,21.66
2023-05-19T15:46:05.865Z,21.57
2023-05-19T15:48:34.772Z,21.50
2023-05-19T15:51:03.521Z,21.40
2023-05-19T15:53:32.044Z,21.25
2023-05-19T15:56:01.183Z,21.17
2023-05-19T15:58:30.832Z,21.12
2023-05-19T16:00:59.465Z,21.02
2023-05-19T16:03:28.241Z,20.97
2023-05-19T16:05:57.057Z,20.88
2023-05-19T16:08:25.892Z,20.80
2023-05-19T16:10:55.377Z,20.69
2023-05-19T16:13:24.222Z,20.59
2023-05-19T16:15:53.007Z,20.49
2023-05-19T16:18:21.624Z,20.44
2023-05-19T16:20:51.605Z,20.34
2023-05-19T16:23:20.155Z,20.33
2023-05-19T16:25:48.900Z,20.32
2023-05-19T16:28:17.610Z,20.30
2023-05-19T16:30:46.389Z,20.31
2023-05-19T16:33:20.170Z,20.28
2023-05-19T16:35:48.822Z,20.22
2023-05-19T16:38:17.403Z,20.18
2023-05-19T16:40:45.875Z,20.11
2023-05-19T16:43:14.556Z,20.02
2023-05-19T16:45:43.116Z,19.96
2023-05-19T16:48:11.729Z,19.92
2023-05-19T16:50:40.254Z,19.87
2023-05-19T16:53:08.648Z,19.78
2023-05-19T16:55:37.292Z,19.70
2023-05-19T16:58:05.792Z,19.65
2023-05-19T17:00:35.112Z,19.59
2023-05-19T17:03:05.126Z,19.60
2023-05-19T17:05:33.901Z,19.60
2023-05-19T17:08:02.586Z,19.57
2023-05-19T17:10:35.051Z,19.53
2023-05-19T17:13:03.815Z,19.47
2023-05-19T17:15:34.884Z,19.43
2023-05-19T17:18:03.727Z,19.44
2023-05-19T17:20:32.442Z,19.41
2023-05-19T17:23:01.516Z,19.41
2023-05-19T17:25:29.917Z,19.39
2023-05-19T17:27:58.500Z,19.36
2023-05-19T17:30:27.359Z,19.34
2023-05-19T17:33:03.235Z,19.33
2023-05-19T17:35:33.589Z,19.29
2023-05-19T17:38:02.040Z,19.26
2023-05-19T17:40:31.129Z,19.23
2023-05-19T17:42:59.864Z,19.22
2023-05-19T17:45:28.384Z,19.19
2023-05-19T17:47:56.807Z,19.15
2023-05-19T17:50:25.434Z,19.09
2023-05-19T17:52:54.655Z,19.02
2023-05-19T17:55:28.147Z,18.93
2023-05-19T17:57:57.711Z,18.87
2023-05-19T18:00:26.444Z,18.80
2023-05-19T18:02:57.179Z,18.76
2023-05-19T18:05:26.725Z,18.70
2023-05-19T18:07:57.599Z,18.66
2023-05-19T18:10:27.679Z,18.67
2023-05-19T18:12:56.204Z,18.80
2023-05-19T18:15:24.645Z,19.02
2023-05-19T18:17:53.234Z,19.07
2023-05-19T18:20:23.714Z,19.09
2023-05-19T18:22:54.798Z,19.16
2023-05-19T18:25:23.873Z,19.01
2023-05-19T18:27:55.928Z,18.84
2023-05-19T18:30:24.469Z,18.75
2023-05-19T18:32:53.635Z,18.60
2023-05-19T18:35:24.503Z,18.38
2023-05-19T18:37:57.584Z,18.21
2023-05-19T18:40:26.316Z,18.10
2023-05-19T18:42:54.867Z,17.98
2023-05-19T18:45:23.398Z,17.89
2023-05-19T18:47:52.051Z,17.85
2023-05-19T18:50:20.819Z,17.79
2023-05-19T18:52:49.374Z,17.75
2023-05-19T18:55:17.979Z,17.72
2023-05-19T18:57:46.541Z,17.69
2023-05-19T19:00:15.863Z,17.64
2023-05-19T19:02:44.633Z,17.62
2023-05-19T19:05:14.203Z,17.61
2023-05-19T19:07:44.871Z,17.56
2023-05-19T19:10:13.620Z,17.53
2023-05-19T19:12:42.098Z,17.53
2023-05-19T19:15:11.483Z,17.52
2023-05-19T19:17:40.308Z,17.48
2023-05-19T19:20:09.638Z,17.42
2023-05-19T19:22:38.466Z,17.39
2023-05-19T19:25:08.560Z,17.37
2023-05-19T19:27:40.285Z,17.35
2023-05-19T19:30:09.671Z,17.32
2023-05-19T19:32:38.334Z,17.29
2023-05-19T19:35:07.276Z,17.29
2023-05-19T19:37:35.799Z,17.27
2023-05-19T19:40:04.871Z,17.14
2023-05-19T19:42:33.396Z,17.08
2023-05-19T19:45:02.270Z,16.96
2023-05-19T19:47:30.956Z,16.87
2023-05-19T19:50:01.260Z,16.78
2023-05-19T19:52:29.823Z,16.75
2023-05-19T19:54:58.303Z,16.72
2023-05-19T19:57:27.222Z,16.70
2023-05-19T19:59:57.438Z,16.69
2023-05-19T20:02:26.577Z,16.69
2023-05-19T20:04:55.376Z,16.70
2023-05-19T20:07:23.891Z,16.73
2023-05-19T20:09:52.823Z,16.76
2023-05-19T20:12:22.439Z,16.80
2023-05-19T20:14:54.092Z,16.80
2023-05-19T20:17:22.580Z,16.78
2023-05-19T20:19:51.054Z,16.75
2023-05-19T20:22:19.331Z,16.72
2023-05-19T20:24:47.713Z,16.69
2023-05-19T20:27:16.144Z,16.68
2023-05-19T20:29:45.592Z,16.70
2023-05-19T20:32:13.984Z,16.75
2023-05-19T20:34:42.425Z,16.77
2023-05-19T20:37:13.824Z,16.82
2023-05-19T20:39:43.441Z,16.86
2023-05-19T20:42:11.727Z,16.89
2023-05-19T20:44:40.165Z,16.92
2023-05-19T20:47:10.101Z,16.96
2023-05-19T20:49:38.732Z,16.99
2023-05-19T20:53:40.910Z,17.02
2023-05-19T20:56:10.814Z,16.97
2023-05-19T20:58:39.889Z,16.89
2023-05-19T21:01:08.419Z,16.68
2023-05-19T21:03:37.089Z,16.60
2023-05-19T21:06:05.636Z,16.53
2023-05-19T21:08:34.215Z,16.41
2023-05-19T21:11:02.649Z,16.36
2023-05-19T21:13:31.767Z,16.35
2023-05-19T21:16:00.430Z,16.36
2023-05-19T21:18:29.066Z,16.36
2023-05-19T21:20:57.697Z,16.34
2023-05-19T21:23:26.243Z,16.36
2023-05-19T21:25:55.071Z,16.36
2023-05-19T21:28:23.534Z,16.31
2023-05-19T21:30:52.105Z,16.25
2023-05-19T21:33:20.734Z,16.25
2023-05-19T21:35:49.316Z,16.22
2023-05-19T21:38:23.752Z,16.23
2023-05-19T21:40:53.465Z,16.22
2023-05-19T21:43:22.936Z,16.21
2023-05-19T21:45:51.731Z,16.26
2023-05-19T21:48:20.429Z,16.27
2023-05-19T21:50:55.926Z,16.30
2023-05-19T21:53:25.261Z,16.23
2023-05-19T21:55:53.892Z,16.25
2023-05-19T21:58:22.887Z,16.21
2023-05-19T22:00:53.459Z,16.19
2023-05-19T22:03:22.474Z,16.12
2023-05-19T22:05:53.063Z,16.08
2023-05-19T22:08:26.215Z,16.00
2023-05-19T22:10:54.820Z,15.97
2023-05-19T22:13:23.267Z,15.92
2023-05-19T22:15:51.824Z,15.93
2023-05-19T22:18:20.480Z,15.86
2023-05-19T22:20:49.088Z,15.83
2023-05-19T22:23:17.603Z,15.78
2023-05-19T22:25:47.015Z,15.71
2023-05-19T22:28:15.779Z,15.68
2023-05-19T22:30:44.372Z,15.69
2023-05-19T22:33:13.102Z,15.73
2023-05-19T22:35:42.108Z,15.76
2023-05-19T22:38:10.848Z,15.79
2023-05-19T22:40:39.565Z,15.79
2023-05-19T22:43:08.099Z,15.79
2023-05-19T22:45:36.973Z,15.84
2023-05-19T22:48:06.151Z,15.86
2023-05-19T22:50:34.742Z,15.90
2023-05-19T22:53:03.360Z,15.93
2023-05-19T22:55:32.502Z,15.94
2023-05-19T22:58:01.217Z,15.94
2023-05-19T23:00:29.762Z,15.98
2023-05-19T23:02:58.519Z,16.00
2023-05-19T23:05:26.957Z,16.02
2023-05-19T23:07:55.571Z,15.99
2023-05-19T23:10:24.012Z,16.00
2023-05-19T23:12:52.658Z,16.02
2023-05-19T23:15:21.165Z,16.04
2023-05-19T23:17:49.818Z,16.01
2023-05-19T23:20:18.355Z,16.00
2023-05-19T23:22:46.819Z,16.01
2023-05-19T23:25:15.244Z,15.97
2023-05-19T23:27:43.697Z,15.89
2023-05-19T23:30:12.360Z,15.90
2023-05-19T23:32:41.157Z,15.88
2023-05-19T23:35:16.067Z,15.89
2023-05-19T23:37:44.635Z,15.86
2023-05-19T23:40:13.249Z,15.87
2023-05-19T23:42:41.654Z,15.81
2023-05-19T23:45:10.471Z,15.83
2023-05-19T23:51:10.955Z,15.84
2023-05-19T23:53:39.808Z,15.77
2023-05-19T23:56:08.535Z,15.72
2023-05-19T23:58:37.655Z,15.71
